sensor_id;sensor_type;location;lat;lon;timestamp;P1;durP1;ratioP1;P2;durP2;ratioP2
50064;SDS011;64524;47.848;-122.338;2022-11-15T00:01:28;0.40;;;0.10;;
50064;SDS011;64524;47.848;-122.338;2022-11-15T00:03:57;2.70;;;0.20;;
50064;SDS011;64524;47.848;-122.338;2022-11-15T00:06:26;1.10;;;0.20;;
50064;SDS011;64524;47.848;-122.338;2022-11-15T00:08:54;0.60;;;0.20;;
50064;SDS011;64524;47.848;-122.338;2022-11-15T00:11:29;1.20;;;0.20;;
50064;SDS011;64524;47.848;-122.338;2022-11-15T00:13:58;1.30;;;0.20;;
50064;SDS011;64524;47.848;-122.338;2022-11-15T00:16:29;0.80;;;0.20;;
50064;SDS011;64524;47.848;-122.338;2022-11-15T00:18:58;0.50;;;0.20;;
50064;SDS011;64524;47.848;-122.338;2022-11-15T00:21:27;0.70;;;0.20;;
50064;SDS011;64524;47.848;-122.338;2022-11-15T00:23:56;0.60;;;0.20;;
50064;SDS011;64524;47.848;-122.338;2022-11-15T00:26:26;1.00;;;0.10;;
50064;SDS011;64524;47.848;-122.338;2022-11-15T00:28:54;0.70;;;0.20;;
50064;SDS011;64524;47.848;-122.338;2022-11-15T00:31:23;3.00;;;0.20;;
50064;SDS011;64524;47.848;-122.338;2022-11-15T00:33:52;0.40;;;0.10;;
50064;SDS011;64524;47.848;-122.338;2022-11-15T00:36:24;0.40;;;0.10;;
50064;SDS011;64524;47.848;-122.338;2022-11-15T00:38:53;0.60;;;0.20;;
50064;SDS011;64524;47.848;-122.338;2022-11-15T00:41:21;1.70;;;0.10;;
50064;SDS011;64524;47.848;-122.338;2022-11-15T00:43:52;1.80;;;0.10;;
50064;SDS011;64524;47.848;-122.338;2022-11-15T00:46:21;0.70;;;0.20;;
50064;SDS011;64524;47.848;-122.338;2022-11-15T00:48:50;0.60;;;0.20;;
50064;SDS011;64524;47.848;-122.338;2022-11-15T00:51:19;1.60;;;0.20;;
50064;SDS011;64524;47.848;-122.338;2022-11-15T00:53:48;0.50;;;0.20;;
50064;SDS011;64524;47.848;-122.338;2022-11-15T00:56:18;0.40;;;0.10;;
50064;SDS011;64524;47.848;-122.338;2022-11-15T00:58:47;0.90;;;0.20;;
50064;SDS011;64524;47.848;-122.338;2022-11-15T01:01:16;3.40;;;0.20;;
50064;SDS011;64524;47.848;-122.338;2022-11-15T01:03:45;0.40;;;0.20;;
50064;SDS011;64524;47.848;-122.338;2022-11-15T01:06:16;2.60;;;0.10;;
50064;SDS011;64524;47.848;-122.338;2022-11-15T01:08:45;0.70;;;0.20;;
50064;SDS011;64524;47.848;-122.338;2022-11-15T01:11:14;2.00;;;0.20;;
50064;SDS011;64524;47.848;-122.338;2022-11-15T01:13:42;0.20;;;0.10;;
50064;SDS011;64524;47.848;-122.338;2022-11-15T01:16:17;0.90;;;0.20;;
50064;SDS011;64524;47.848;-122.338;2022-11-15T01:18:46;0.50;;;0.20;;
50064;SDS011;64524;47.848;-122.338;2022-11-15T01:21:16;0.60;;;0.20;;
50064;SDS011;64524;47.848;-122.338;2022-11-15T01:23:52;0.60;;;0.30;;
50064;SDS011;64524;47.848;-122.338;2022-11-15T01:26:22;0.50;;;0.20;;
50064;SDS011;64524;47.848;-122.338;2022-11-15T01:28:51;0.50;;;0.20;;
50064;SDS011;64524;47.848;-122.338;2022-11-15T01:31:21;0.70;;;0.30;;
50064;SDS011;64524;47.848;-122.338;2022-11-15T01:33:50;3.40;;;0.30;;
50064;SDS011;64524;47.848;-122.338;2022-11-15T01:36:19;1.10;;;0.40;;
50064;SDS011;64524;47.848;-122.338;2022-11-15T01:38:54;2.00;;;0.30;;
50064;SDS011;64524;47.848;-122.338;2022-11-15T01:41:25;0.90;;;0.30;;
50064;SDS011;64524;47.848;-122.338;2022-11-15T01:47:20;1.00;;;0.30;;
50064;SDS011;64524;47.848;-122.338;2022-11-15T01:52:38;1.20;;;0.30;;
50064;SDS011;64524;47.848;-122.338;2022-11-15T01:55:19;2.40;;;0.30;;
50064;SDS011;64524;47.848;-122.338;2022-11-15T01:57:51;0.70;;;0.30;;
50064;SDS011;64524;47.848;-122.338;2022-11-15T02:00:25;2.10;;;0.40;;
50064;SDS011;64524;47.848;-122.338;2022-11-15T02:02:54;1.30;;;0.30;;
50064;SDS011;64524;47.848;-122.338;2022-11-15T02:05:23;0.90;;;0.30;;
50064;SDS011;64524;47.848;-122.338;2022-11-15T02:07:52;0.70;;;0.20;;
50064;SDS011;64524;47.848;-122.338;2022-11-15T02:10:22;4.50;;;0.30;;
50064;SDS011;64524;47.848;-122.338;2022-11-15T02:12:51;0.70;;;0.20;;
50064;SDS011;64524;47.848;-122.338;2022-11-15T02:15:23;4.20;;;0.40;;
50064;SDS011;64524;47.848;-122.338;2022-11-15T02:18:04;1.50;;;0.40;;
50064;SDS011;64524;47.848;-122.338;2022-11-15T02:20:52;2.10;;;0.30;;
50064;SDS011;64524;47.848;-122.338;2022-11-15T02:23:36;2.00;;;0.40;;
50064;SDS011;64524;47.848;-122.338;2022-11-15T02:26:48;4.80;;;0.50;;
50064;SDS011;64524;47.848;-122.338;2022-11-15T02:37:34;0.90;;;0.30;;
50064;SDS011;64524;47.848;-122.338;2022-11-15T02:40:19;3.30;;;0.40;;
50064;SDS011;64524;47.848;-122.338;2022-11-15T02:42:50;5.70;;;0.30;;
50064;SDS011;64524;47.848;-122.338;2022-11-15T02:45:48;1.00;;;0.40;;
50064;SDS011;64524;47.848;-122.338;2022-11-15T02:48:21;2.10;;;0.30;;
50064;SDS011;64524;47.848;-122.338;2022-11-15T02:50:52;1.50;;;0.30;;
50064;SDS011;64524;47.848;-122.338;2022-11-15T02:53:24;0.80;;;0.30;;
50064;SDS011;64524;47.848;-122.338;2022-11-15T02:55:54;1.30;;;0.40;;
50064;SDS011;64524;47.848;-122.338;2022-11-15T03:07:43;3.30;;;0.40;;
50064;SDS011;64524;47.848;-122.338;2022-11-15T03:10:09;1.90;;;0.30;;
50064;SDS011;64524;47.848;-122.338;2022-11-15T03:13:30;0.90;;;0.30;;
50064;SDS011;64524;47.848;-122.338;2022-11-15T03:16:24;3.40;;;0.30;;
50064;SDS011;64524;47.848;-122.338;2022-11-15T03:19:08;0.80;;;0.30;;
50064;SDS011;64524;47.848;-122.338;2022-11-15T03:22:01;1.10;;;0.30;;
50064;SDS011;64524;47.848;-122.338;2022-11-15T03:24:34;1.00;;;0.40;;
50064;SDS011;64524;47.848;-122.338;2022-11-15T03:27:06;3.60;;;0.40;;
50064;SDS011;64524;47.848;-122.338;2022-11-15T03:29:37;7.80;;;0.40;;
50064;SDS011;64524;47.848;-122.338;2022-11-15T03:32:13;1.20;;;0.40;;
50064;SDS011;64524;47.848;-122.338;2022-11-15T03:35:06;2.50;;;0.30;;
50064;SDS011;64524;47.848;-122.338;2022-11-15T03:38:24;1.20;;;0.30;;
50064;SDS011;64524;47.848;-122.338;2022-11-15T03:40:45;2.80;;;0.50;;
50064;SDS011;64524;47.848;-122.338;2022-11-15T03:46:32;4.30;;;0.40;;
50064;SDS011;64524;47.848;-122.338;2022-11-15T03:49:09;2.70;;;0.40;;
50064;SDS011;64524;47.848;-122.338;2022-11-15T03:51:43;1.10;;;0.40;;
50064;SDS011;64524;47.848;-122.338;2022-11-15T03:54:12;2.50;;;0.40;;
50064;SDS011;64524;47.848;-122.338;2022-11-15T03:56:41;4.50;;;0.70;;
50064;SDS011;64524;47.848;-122.338;2022-11-15T03:59:09;2.90;;;0.40;;
50064;SDS011;64524;47.848;-122.338;2022-11-15T04:01:38;1.30;;;0.40;;
50064;SDS011;64524;47.848;-122.338;2022-11-15T04:04:06;3.80;;;1.50;;
50064;SDS011;64524;47.848;-122.338;2022-11-15T04:06:35;3.00;;;0.50;;
50064;SDS011;64524;47.848;-122.338;2022-11-15T04:09:04;3.60;;;0.80;;
50064;SDS011;64524;47.848;-122.338;2022-11-15T04:11:33;0.90;;;0.40;;
50064;SDS011;64524;47.848;-122.338;2022-11-15T04:14:02;0.90;;;0.40;;
50064;SDS011;64524;47.848;-122.338;2022-11-15T04:16:30;1.20;;;0.50;;
50064;SDS011;64524;47.848;-122.338;2022-11-15T04:18:59;4.00;;;0.40;;
50064;SDS011;64524;47.848;-122.338;2022-11-15T04:21:45;2.30;;;0.40;;
50064;SDS011;64524;47.848;-122.338;2022-11-15T04:24:32;1.60;;;0.40;;
50064;SDS011;64524;47.848;-122.338;2022-11-15T04:27:00;6.00;;;0.60;;
50064;SDS011;64524;47.848;-122.338;2022-11-15T04:29:29;1.20;;;0.50;;
50064;SDS011;64524;47.848;-122.338;2022-11-15T04:32:05;1.90;;;0.50;;
50064;SDS011;64524;47.848;-122.338;2022-11-15T04:34:35;1.30;;;0.50;;
50064;SDS011;64524;47.848;-122.338;2022-11-15T04:37:05;1.60;;;0.60;;
50064;SDS011;64524;47.848;-122.338;2022-11-15T04:39:40;2.70;;;0.50;;
50064;SDS011;64524;47.848;-122.338;2022-11-15T04:42:10;3.60;;;0.60;;
50064;SDS011;64524;47.848;-122.338;2022-11-15T04:44:39;3.80;;;0.60;;
50064;SDS011;64524;47.848;-122.338;2022-11-15T04:47:08;2.00;;;0.70;;
50064;SDS011;64524;47.848;-122.338;2022-11-15T04:49:37;5.30;;;0.70;;
50064;SDS011;64524;47.848;-122.338;2022-11-15T04:52:05;1.40;;;0.50;;
50064;SDS011;64524;47.848;-122.338;2022-11-15T04:54:34;5.30;;;0.60;;
50064;SDS011;64524;47.848;-122.338;2022-11-15T04:57:03;2.70;;;0.60;;
50064;SDS011;64524;47.848;-122.338;2022-11-15T04:59:32;1.80;;;0.70;;
50064;SDS011;64524;47.848;-122.338;2022-11-15T05:02:01;3.20;;;0.70;;
50064;SDS011;64524;47.848;-122.338;2022-11-15T05:04:29;1.70;;;0.60;;
50064;SDS011;64524;47.848;-122.338;2022-11-15T05:06:58;3.30;;;0.80;;
50064;SDS011;64524;47.848;-122.338;2022-11-15T05:09:28;3.10;;;1.30;;
50064;SDS011;64524;47.848;-122.338;2022-11-15T05:11:56;3.40;;;1.00;;
50064;SDS011;64524;47.848;-122.338;2022-11-15T05:14:24;4.20;;;0.70;;
50064;SDS011;64524;47.848;-122.338;2022-11-15T05:16:53;8.00;;;1.00;;
50064;SDS011;64524;47.848;-122.338;2022-11-15T05:19:22;2.20;;;0.80;;
50064;SDS011;64524;47.848;-122.338;2022-11-15T05:21:50;2.10;;;0.80;;
50064;SDS011;64524;47.848;-122.338;2022-11-15T05:24:19;2.60;;;0.80;;
50064;SDS011;64524;47.848;-122.338;2022-11-15T05:26:48;2.40;;;0.70;;
50064;SDS011;64524;47.848;-122.338;2022-11-15T05:29:16;2.50;;;0.90;;
50064;SDS011;64524;47.848;-122.338;2022-11-15T05:31:45;3.50;;;0.80;;
50064;SDS011;64524;47.848;-122.338;2022-11-15T05:34:14;4.30;;;0.90;;
50064;SDS011;64524;47.848;-122.338;2022-11-15T05:36:44;2.40;;;0.80;;
50064;SDS011;64524;47.848;-122.338;2022-11-15T05:39:13;2.30;;;0.70;;
50064;SDS011;64524;47.848;-122.338;2022-11-15T05:41:43;10.80;;;1.00;;
50064;SDS011;64524;47.848;-122.338;2022-11-15T05:44:21;4.90;;;0.70;;
50064;SDS011;64524;47.848;-122.338;2022-11-15T05:46:51;1.70;;;0.60;;
50064;SDS011;64524;47.848;-122.338;2022-11-15T05:49:22;3.80;;;0.60;;
50064;SDS011;64524;47.848;-122.338;2022-11-15T05:51:56;1.70;;;0.60;;
50064;SDS011;64524;47.848;-122.338;2022-11-15T05:54:25;1.60;;;0.60;;
50064;SDS011;64524;47.848;-122.338;2022-11-15T05:56:54;1.70;;;0.70;;
50064;SDS011;64524;47.848;-122.338;2022-11-15T05:59:24;2.40;;;0.70;;
50064;SDS011;64524;47.848;-122.338;2022-11-15T06:01:53;2.40;;;0.70;;
50064;SDS011;64524;47.848;-122.338;2022-11-15T06:04:22;1.70;;;0.60;;
50064;SDS011;64524;47.848;-122.338;2022-11-15T06:06:51;1.70;;;0.60;;
50064;SDS011;64524;47.848;-122.338;2022-11-15T06:09:20;1.60;;;0.80;;
50064;SDS011;64524;47.848;-122.338;2022-11-15T06:11:49;1.80;;;0.70;;
50064;SDS011;64524;47.848;-122.338;2022-11-15T06:14:18;2.30;;;0.70;;
50064;SDS011;64524;47.848;-122.338;2022-11-15T06:16:46;2.00;;;0.70;;
50064;SDS011;64524;47.848;-122.338;2022-11-15T06:19:14;1.90;;;0.60;;
50064;SDS011;64524;47.848;-122.338;2022-11-15T06:21:44;1.30;;;0.60;;
50064;SDS011;64524;47.848;-122.338;2022-11-15T06:24:13;2.00;;;0.60;;
50064;SDS011;64524;47.848;-122.338;2022-11-15T06:26:41;1.50;;;0.60;;
50064;SDS011;64524;47.848;-122.338;2022-11-15T06:29:10;4.30;;;0.80;;
50064;SDS011;64524;47.848;-122.338;2022-11-15T06:31:39;1.30;;;0.50;;
50064;SDS011;64524;47.848;-122.338;2022-11-15T06:34:07;1.60;;;0.50;;
50064;SDS011;64524;47.848;-122.338;2022-11-15T06:36:36;3.10;;;0.50;;
50064;SDS011;64524;47.848;-122.338;2022-11-15T06:39:05;1.40;;;0.60;;
50064;SDS011;64524;47.848;-122.338;2022-11-15T06:41:34;5.50;;;0.60;;
50064;SDS011;64524;47.848;-122.338;2022-11-15T06:44:03;1.60;;;0.50;;
50064;SDS011;64524;47.848;-122.338;2022-11-15T06:46:31;1.90;;;0.60;;
50064;SDS011;64524;47.848;-122.338;2022-11-15T06:49:00;5.40;;;0.60;;
50064;SDS011;64524;47.848;-122.338;2022-11-15T06:51:35;1.40;;;0.50;;
50064;SDS011;64524;47.848;-122.338;2022-11-15T06:54:03;3.50;;;0.70;;
50064;SDS011;64524;47.848;-122.338;2022-11-15T06:56:33;3.40;;;0.60;;
50064;SDS011;64524;47.848;-122.338;2022-11-15T06:59:02;6.30;;;0.70;;
50064;SDS011;64524;47.848;-122.338;2022-11-15T07:01:31;4.70;;;0.60;;
50064;SDS011;64524;47.848;-122.338;2022-11-15T07:04:00;1.40;;;0.60;;
50064;SDS011;64524;47.848;-122.338;2022-11-15T07:06:29;3.60;;;0.90;;
50064;SDS011;64524;47.848;-122.338;2022-11-15T07:08:58;2.10;;;0.60;;
50064;SDS011;64524;47.848;-122.338;2022-11-15T07:11:27;2.00;;;0.60;;
50064;SDS011;64524;47.848;-122.338;2022-11-15T07:13:55;2.60;;;0.60;;
50064;SDS011;64524;47.848;-122.338;2022-11-15T07:16:24;2.00;;;0.60;;
50064;SDS011;64524;47.848;-122.338;2022-11-15T07:18:52;1.10;;;0.50;;
50064;SDS011;64524;47.848;-122.338;2022-11-15T07:21:21;2.30;;;0.80;;
50064;SDS011;64524;47.848;-122.338;2022-11-15T07:23:53;1.20;;;0.60;;
50064;SDS011;64524;47.848;-122.338;2022-11-15T07:26:22;1.30;;;0.60;;
50064;SDS011;64524;47.848;-122.338;2022-11-15T07:28:50;1.70;;;0.60;;
50064;SDS011;64524;47.848;-122.338;2022-11-15T07:31:19;1.20;;;0.60;;
50064;SDS011;64524;47.848;-122.338;2022-11-15T07:33:47;1.50;;;0.50;;
50064;SDS011;64524;47.848;-122.338;2022-11-15T07:36:16;1.40;;;0.60;;
50064;SDS011;64524;47.848;-122.338;2022-11-15T07:38:45;1.50;;;0.50;;
50064;SDS011;64524;47.848;-122.338;2022-11-15T07:41:14;1.70;;;0.50;;
50064;SDS011;64524;47.848;-122.338;2022-11-15T07:43:42;3.20;;;0.50;;
50064;SDS011;64524;47.848;-122.338;2022-11-15T07:46:11;1.60;;;0.60;;
50064;SDS011;64524;47.848;-122.338;2022-11-15T07:48:40;1.30;;;0.60;;
50064;SDS011;64524;47.848;-122.338;2022-11-15T07:51:11;4.50;;;0.60;;
50064;SDS011;64524;47.848;-122.338;2022-11-15T07:53:42;3.40;;;0.70;;
50064;SDS011;64524;47.848;-122.338;2022-11-15T07:56:11;1.20;;;0.50;;
50064;SDS011;64524;47.848;-122.338;2022-11-15T07:58:40;1.60;;;0.50;;
50064;SDS011;64524;47.848;-122.338;2022-11-15T08:01:10;1.90;;;0.50;;
50064;SDS011;64524;47.848;-122.338;2022-11-15T08:03:39;1.90;;;0.50;;
50064;SDS011;64524;47.848;-122.338;2022-11-15T08:06:07;2.00;;;0.50;;
50064;SDS011;64524;47.848;-122.338;2022-11-15T08:08:37;1.10;;;0.50;;
50064;SDS011;64524;47.848;-122.338;2022-11-15T08:11:06;2.80;;;0.60;;
50064;SDS011;64524;47.848;-122.338;2022-11-15T08:13:34;1.40;;;0.50;;
50064;SDS011;64524;47.848;-122.338;2022-11-15T08:16:03;3.50;;;0.50;;
50064;SDS011;64524;47.848;-122.338;2022-11-15T08:18:32;2.30;;;0.50;;
50064;SDS011;64524;47.848;-122.338;2022-11-15T08:21:01;2.10;;;0.80;;
50064;SDS011;64524;47.848;-122.338;2022-11-15T08:23:30;1.70;;;0.50;;
50064;SDS011;64524;47.848;-122.338;2022-11-15T08:26:03;2.60;;;0.80;;
50064;SDS011;64524;47.848;-122.338;2022-11-15T08:28:32;5.80;;;0.80;;
50064;SDS011;64524;47.848;-122.338;2022-11-15T08:31:01;1.70;;;0.50;;
50064;SDS011;64524;47.848;-122.338;2022-11-15T08:33:31;2.30;;;0.60;;
50064;SDS011;64524;47.848;-122.338;2022-11-15T08:36:00;3.40;;;0.60;;
50064;SDS011;64524;47.848;-122.338;2022-11-15T08:38:29;3.60;;;0.50;;
50064;SDS011;64524;47.848;-122.338;2022-11-15T08:41:03;1.90;;;0.90;;
50064;SDS011;64524;47.848;-122.338;2022-11-15T08:43:33;3.10;;;0.60;;
50064;SDS011;64524;47.848;-122.338;2022-11-15T08:46:02;3.30;;;0.50;;
50064;SDS011;64524;47.848;-122.338;2022-11-15T08:48:31;1.90;;;0.80;;
50064;SDS011;64524;47.848;-122.338;2022-11-15T08:51:00;2.20;;;0.70;;
50064;SDS011;64524;47.848;-122.338;2022-11-15T08:53:28;1.40;;;0.50;;
50064;SDS011;64524;47.848;-122.338;2022-11-15T08:55:57;1.20;;;0.50;;
50064;SDS011;64524;47.848;-122.338;2022-11-15T08:58:26;1.80;;;0.70;;
50064;SDS011;64524;47.848;-122.338;2022-11-15T09:00:56;1.60;;;0.60;;
50064;SDS011;64524;47.848;-122.338;2022-11-15T09:03:25;2.80;;;0.70;;
50064;SDS011;64524;47.848;-122.338;2022-11-15T09:06:00;3.70;;;0.50;;
50064;SDS011;64524;47.848;-122.338;2022-11-15T09:08:31;1.60;;;0.50;;
50064;SDS011;64524;47.848;-122.338;2022-11-15T09:11:14;4.00;;;0.70;;
50064;SDS011;64524;47.848;-122.338;2022-11-15T09:13:44;1.30;;;0.40;;
50064;SDS011;64524;47.848;-122.338;2022-11-15T09:16:13;1.40;;;0.50;;
50064;SDS011;64524;47.848;-122.338;2022-11-15T09:18:42;0.90;;;0.40;;
50064;SDS011;64524;47.848;-122.338;2022-11-15T09:21:12;1.10;;;0.40;;
50064;SDS011;64524;47.848;-122.338;2022-11-15T09:23:40;8.30;;;0.30;;
50064;SDS011;64524;47.848;-122.338;2022-11-15T09:26:09;4.50;;;0.30;;
50064;SDS011;64524;47.848;-122.338;2022-11-15T09:28:38;1.10;;;0.40;;
50064;SDS011;64524;47.848;-122.338;2022-11-15T09:31:09;2.20;;;0.30;;
50064;SDS011;64524;47.848;-122.338;2022-11-15T09:33:38;0.80;;;0.30;;
50064;SDS011;64524;47.848;-122.338;2022-11-15T09:36:07;1.60;;;0.30;;
50064;SDS011;64524;47.848;-122.338;2022-11-15T09:38:36;0.80;;;0.30;;
50064;SDS011;64524;47.848;-122.338;2022-11-15T09:49:06;0.70;;;0.30;;
50064;SDS011;64524;47.848;-122.338;2022-11-15T09:51:41;0.80;;;0.30;;
50064;SDS011;64524;47.848;-122.338;2022-11-15T09:57:22;0.90;;;0.50;;
50064;SDS011;64524;47.848;-122.338;2022-11-15T10:03:15;0.50;;;0.20;;
50064;SDS011;64524;47.848;-122.338;2022-11-15T10:05:49;1.00;;;0.20;;
50064;SDS011;64524;47.848;-122.338;2022-11-15T10:11:23;3.00;;;0.30;;
50064;SDS011;64524;47.848;-122.338;2022-11-15T10:14:37;0.80;;;0.20;;
50064;SDS011;64524;47.848;-122.338;2022-11-15T10:20:00;4.50;;;0.20;;
50064;SDS011;64524;47.848;-122.338;2022-11-15T10:22:46;1.50;;;0.30;;
50064;SDS011;64524;47.848;-122.338;2022-11-15T10:27:54;0.60;;;0.30;;
50064;SDS011;64524;47.848;-122.338;2022-11-15T10:30:28;0.70;;;0.20;;
50064;SDS011;64524;47.848;-122.338;2022-11-15T10:36:41;1.70;;;0.30;;
50064;SDS011;64524;47.848;-122.338;2022-11-15T10:38:53;2.30;;;0.30;;
50064;SDS011;64524;47.848;-122.338;2022-11-15T10:49:37;0.50;;;0.30;;
50064;SDS011;64524;47.848;-122.338;2022-11-15T10:52:25;1.80;;;0.40;;
50064;SDS011;64524;47.848;-122.338;2022-11-15T10:54:57;3.40;;;0.30;;
50064;SDS011;64524;47.848;-122.338;2022-11-15T10:57:29;0.80;;;0.30;;
50064;SDS011;64524;47.848;-122.338;2022-11-15T11:00:04;0.90;;;0.30;;
50064;SDS011;64524;47.848;-122.338;2022-11-15T11:02:41;0.70;;;0.30;;
50064;SDS011;64524;47.848;-122.338;2022-11-15T11:05:29;0.50;;;0.20;;
50064;SDS011;64524;47.848;-122.338;2022-11-15T11:10:40;0.60;;;0.20;;
50064;SDS011;64524;47.848;-122.338;2022-11-15T11:13:30;0.80;;;0.20;;
50064;SDS011;64524;47.848;-122.338;2022-11-15T11:16:08;0.40;;;0.10;;
50064;SDS011;64524;47.848;-122.338;2022-11-15T11:30:06;2.80;;;0.30;;
50064;SDS011;64524;47.848;-122.338;2022-11-15T11:40:54;0.50;;;0.20;;
50064;SDS011;64524;47.848;-122.338;2022-11-15T11:43:47;2.80;;;0.30;;
50064;SDS011;64524;47.848;-122.338;2022-11-15T11:49:29;0.60;;;0.20;;
50064;SDS011;64524;47.848;-122.338;2022-11-15T11:57:33;1.50;;;0.30;;
50064;SDS011;64524;47.848;-122.338;2022-11-15T12:03:03;10.50;;;0.50;;
50064;SDS011;64524;47.848;-122.338;2022-11-15T12:05:57;0.60;;;0.20;;
50064;SDS011;64524;47.848;-122.338;2022-11-15T12:13:53;0.40;;;0.20;;
50064;SDS011;64524;47.848;-122.338;2022-11-15T12:18:58;0.50;;;0.20;;
50064;SDS011;64524;47.848;-122.338;2022-11-15T12:24:28;0.70;;;0.30;;
50064;SDS011;64524;47.848;-122.338;2022-11-15T12:27:08;0.80;;;0.30;;
50064;SDS011;64524;47.848;-122.338;2022-11-15T12:29:51;1.30;;;0.30;;
50064;SDS011;64524;47.848;-122.338;2022-11-15T12:32:34;0.80;;;0.30;;
50064;SDS011;64524;47.848;-122.338;2022-11-15T12:35:20;0.60;;;0.30;;
50064;SDS011;64524;47.848;-122.338;2022-11-15T12:37:56;0.50;;;0.10;;
50064;SDS011;64524;47.848;-122.338;2022-11-15T12:43:32;3.10;;;0.30;;
50064;SDS011;64524;47.848;-122.338;2022-11-15T12:46:03;0.50;;;0.20;;
50064;SDS011;64524;47.848;-122.338;2022-11-15T12:51:08;0.60;;;0.20;;
50064;SDS011;64524;47.848;-122.338;2022-11-15T12:53:36;0.70;;;0.30;;
50064;SDS011;64524;47.848;-122.338;2022-11-15T13:12:47;0.50;;;0.20;;
50064;SDS011;64524;47.848;-122.338;2022-11-15T13:15:51;0.50;;;0.20;;
50064;SDS011;64524;47.848;-122.338;2022-11-15T13:20:56;2.80;;;0.30;;
50064;SDS011;64524;47.848;-122.338;2022-11-15T13:23:28;1.50;;;0.20;;
50064;SDS011;64524;47.848;-122.338;2022-11-15T13:28:47;12.40;;;0.30;;
50064;SDS011;64524;47.848;-122.338;2022-11-15T13:31:22;0.50;;;0.20;;
50064;SDS011;64524;47.848;-122.338;2022-11-15T13:33:58;0.70;;;0.20;;
50064;SDS011;64524;47.848;-122.338;2022-11-15T13:37:08;0.40;;;0.20;;
50064;SDS011;64524;47.848;-122.338;2022-11-15T13:39:57;5.20;;;0.20;;
50064;SDS011;64524;47.848;-122.338;2022-11-15T13:42:49;0.30;;;0.10;;
50064;SDS011;64524;47.848;-122.338;2022-11-15T13:45:18;1.50;;;0.20;;
50064;SDS011;64524;47.848;-122.338;2022-11-15T13:47:52;0.30;;;0.10;;
50064;SDS011;64524;47.848;-122.338;2022-11-15T13:50:29;0.80;;;0.10;;
50064;SDS011;64524;47.848;-122.338;2022-11-15T13:53:02;0.40;;;0.10;;
50064;SDS011;64524;47.848;-122.338;2022-11-15T13:55:32;1.30;;;0.20;;
50064;SDS011;64524;47.848;-122.338;2022-11-15T13:58:02;5.70;;;0.20;;
50064;SDS011;64524;47.848;-122.338;2022-11-15T14:00:40;1.30;;;0.20;;
50064;SDS011;64524;47.848;-122.338;2022-11-15T14:08:34;0.70;;;0.20;;
50064;SDS011;64524;47.848;-122.338;2022-11-15T14:11:16;0.50;;;0.20;;
50064;SDS011;64524;47.848;-122.338;2022-11-15T14:14:04;0.80;;;0.20;;
50064;SDS011;64524;47.848;-122.338;2022-11-15T14:16:43;1.60;;;0.20;;
50064;SDS011;64524;47.848;-122.338;2022-11-15T14:24:36;1.00;;;0.20;;
50064;SDS011;64524;47.848;-122.338;2022-11-15T14:27:19;2.50;;;0.30;;
50064;SDS011;64524;47.848;-122.338;2022-11-15T14:29:48;0.80;;;0.20;;
50064;SDS011;64524;47.848;-122.338;2022-11-15T14:32:18;0.90;;;0.20;;
50064;SDS011;64524;47.848;-122.338;2022-11-15T14:35:00;0.70;;;0.30;;
50064;SDS011;64524;47.848;-122.338;2022-11-15T14:37:32;0.90;;;0.20;;
50064;SDS011;64524;47.848;-122.338;2022-11-15T14:40:02;1.10;;;0.20;;
50064;SDS011;64524;47.848;-122.338;2022-11-15T14:42:33;0.60;;;0.30;;
50064;SDS011;64524;47.848;-122.338;2022-11-15T14:45:02;0.50;;;0.20;;
50064;SDS011;64524;47.848;-122.338;2022-11-15T14:47:31;0.50;;;0.20;;
50064;SDS011;64524;47.848;-122.338;2022-11-15T14:50:00;0.60;;;0.20;;
50064;SDS011;64524;47.848;-122.338;2022-11-15T14:52:29;0.60;;;0.20;;
50064;SDS011;64524;47.848;-122.338;2022-11-15T14:55:08;0.60;;;0.30;;
50064;SDS011;64524;47.848;-122.338;2022-11-15T14:57:52;0.50;;;0.20;;
50064;SDS011;64524;47.848;-122.338;2022-11-15T15:00:20;2.80;;;0.20;;
50064;SDS011;64524;47.848;-122.338;2022-11-15T15:02:51;2.20;;;0.10;;
50064;SDS011;64524;47.848;-122.338;2022-11-15T15:05:32;2.70;;;0.20;;
50064;SDS011;64524;47.848;-122.338;2022-11-15T15:08:00;0.90;;;0.20;;
50064;SDS011;64524;47.848;-122.338;2022-11-15T15:10:37;1.70;;;0.20;;
50064;SDS011;64524;47.848;-122.338;2022-11-15T15:13:18;0.60;;;0.20;;
50064;SDS011;64524;47.848;-122.338;2022-11-15T15:15:50;2.40;;;0.20;;
50064;SDS011;64524;47.848;-122.338;2022-11-15T15:18:19;0.60;;;0.20;;
50064;SDS011;64524;47.848;-122.338;2022-11-15T15:20:57;0.50;;;0.20;;
50064;SDS011;64524;47.848;-122.338;2022-11-15T15:23:29;0.50;;;0.10;;
50064;SDS011;64524;47.848;-122.338;2022-11-15T15:25:58;2.30;;;0.20;;
50064;SDS011;64524;47.848;-122.338;2022-11-15T15:28:27;1.20;;;0.20;;
50064;SDS011;64524;47.848;-122.338;2022-11-15T15:31:00;0.60;;;0.20;;
50064;SDS011;64524;47.848;-122.338;2022-11-15T15:33:29;3.40;;;0.20;;
50064;SDS011;64524;47.848;-122.338;2022-11-15T15:35:59;0.70;;;0.20;;
50064;SDS011;64524;47.848;-122.338;2022-11-15T15:38:27;1.20;;;0.30;;
50064;SDS011;64524;47.848;-122.338;2022-11-15T15:40:57;4.10;;;0.20;;
50064;SDS011;64524;47.848;-122.338;2022-11-15T15:43:27;0.50;;;0.20;;
50064;SDS011;64524;47.848;-122.338;2022-11-15T15:45:56;0.50;;;0.10;;
50064;SDS011;64524;47.848;-122.338;2022-11-15T15:48:24;1.70;;;0.20;;
50064;SDS011;64524;47.848;-122.338;2022-11-15T15:50:53;0.70;;;0.20;;
50064;SDS011;64524;47.848;-122.338;2022-11-15T15:53:22;5.50;;;0.30;;
50064;SDS011;64524;47.848;-122.338;2022-11-15T15:55:50;2.80;;;0.20;;
50064;SDS011;64524;47.848;-122.338;2022-11-15T15:58:19;2.60;;;0.30;;
50064;SDS011;64524;47.848;-122.338;2022-11-15T16:00:48;0.90;;;0.30;;
50064;SDS011;64524;47.848;-122.338;2022-11-15T16:03:17;0.80;;;0.30;;
50064;SDS011;64524;47.848;-122.338;2022-11-15T16:05:46;1.40;;;0.20;;
50064;SDS011;64524;47.848;-122.338;2022-11-15T16:08:18;1.60;;;0.20;;
50064;SDS011;64524;47.848;-122.338;2022-11-15T16:10:48;0.60;;;0.30;;
50064;SDS011;64524;47.848;-122.338;2022-11-15T16:13:17;1.80;;;0.20;;
50064;SDS011;64524;47.848;-122.338;2022-11-15T16:15:47;0.50;;;0.20;;
50064;SDS011;64524;47.848;-122.338;2022-11-15T16:18:20;0.70;;;0.30;;
50064;SDS011;64524;47.848;-122.338;2022-11-15T16:20:48;0.80;;;0.30;;
50064;SDS011;64524;47.848;-122.338;2022-11-15T16:23:19;1.40;;;0.20;;
50064;SDS011;64524;47.848;-122.338;2022-11-15T16:25:52;0.80;;;0.30;;
50064;SDS011;64524;47.848;-122.338;2022-11-15T16:28:29;0.90;;;0.30;;
50064;SDS011;64524;47.848;-122.338;2022-11-15T16:31:07;3.90;;;1.70;;
50064;SDS011;64524;47.848;-122.338;2022-11-15T16:33:38;0.70;;;0.30;;
50064;SDS011;64524;47.848;-122.338;2022-11-15T16:36:25;1.60;;;0.20;;
50064;SDS011;64524;47.848;-122.338;2022-11-15T16:38:57;0.80;;;0.30;;
50064;SDS011;64524;47.848;-122.338;2022-11-15T16:41:26;0.60;;;0.20;;
50064;SDS011;64524;47.848;-122.338;2022-11-15T16:43:55;4.50;;;0.30;;
50064;SDS011;64524;47.848;-122.338;2022-11-15T16:46:25;1.10;;;0.40;;
50064;SDS011;64524;47.848;-122.338;2022-11-15T16:48:54;12.40;;;0.40;;
50064;SDS011;64524;47.848;-122.338;2022-11-15T16:51:25;3.20;;;0.40;;
50064;SDS011;64524;47.848;-122.338;2022-11-15T16:53:53;4.40;;;0.40;;
50064;SDS011;64524;47.848;-122.338;2022-11-15T16:56:29;1.00;;;0.30;;
50064;SDS011;64524;47.848;-122.338;2022-11-15T16:58:58;0.90;;;0.30;;
50064;SDS011;64524;47.848;-122.338;2022-11-15T17:01:35;0.70;;;0.30;;
50064;SDS011;64524;47.848;-122.338;2022-11-15T17:04:13;0.50;;;0.20;;